Time;durP1;ratioP1;P1;durP2;ratioP2;P2;SDS_P1;SDS_P2;PMS_P1;PMS_P2;Temp;Humidity;BMP_temperature;BMP_pressure;BME280_temperature;BME280_humidity;BME280_pressure;Samples;Min_cycle;Max_cycle;Signal;HPM_P1;HPM_P2
2021/12/26 00:01:48;;;;;;;7.25;2.90;;;;;;;25.67;34.45;95522.47;4961826;28;20045;-30
2021/12/26 00:04:16;;;;;;;5.78;2.58;;;;;;;25.67;34.30;95517.22;4984221;28;20395;-28
2021/12/26 00:06:41;;;;;;;4.43;2.38;;;;;;;25.64;34.33;95507.78;4966218;28;20602;-24
2021/12/26 00:09:07;;;;;;;8.25;2.53;;;;;;;25.65;34.25;95519.09;4949847;28;20111;-30
2021/12/26 00:11:32;;;;;;;5.30;2.47;;;;;;;25.64;34.26;95515.66;4973564;28;20046;-30
2021/12/26 00:13:58;;;;;;;4.20;2.20;;;;;;;25.64;34.17;95507.78;4984874;28;23151;-29
2021/12/26 00:16:23;;;;;;;5.72;2.30;;;;;;;25.65;34.28;95513.84;4980857;28;20033;-27
2021/12/26 00:18:49;;;;;;;7.65;2.38;;;;;;;25.64;34.22;95512.19;4963214;28;20676;-29
2021/12/26 00:21:15;;;;;;;5.57;2.40;;;;;;;25.65;34.16;95513.84;4982034;28;20026;-24
2021/12/26 00:23:41;;;;;;;4.72;2.25;;;;;;;25.65;34.26;95519.09;4982086;28;20073;-25
2021/12/26 00:26:06;;;;;;;4.97;2.20;;;;;;;25.65;34.02;95517.31;4987615;28;20573;-26
2021/12/26 00:28:32;;;;;;;3.47;1.92;;;;;;;25.65;34.29;95513.84;4981547;28;20038;-27
2021/12/26 00:30:57;;;;;;;5.47;2.17;;;;;;;25.65;34.10;95519.09;4984111;28;20037;-27
2021/12/26 00:33:23;;;;;;;4.57;2.15;;;;;;;25.63;34.21;95519.22;4983529;28;20040;-30
2021/12/26 00:35:48;;;;;;;5.50;1.88;;;;;;;25.64;34.17;95523.53;4980575;28;20377;-28
2021/12/26 00:38:14;;;;;;;4.25;2.00;;;;;;;25.64;34.15;95517.44;4979932;28;20030;-27
2021/12/26 00:40:40;;;;;;;3.50;2.08;;;;;;;25.64;34.11;95523.53;4982826;28;20121;-28
2021/12/26 00:43:05;;;;;;;4.78;2.58;;;;;;;25.64;34.13;95517.44;4986796;28;20026;-29
2021/12/26 00:45:31;;;;;;;4.35;2.20;;;;;;;25.64;34.05;95522.69;4984455;28;23637;-27
2021/12/26 00:47:57;;;;;;;3.22;1.92;;;;;;;25.64;34.15;95517.44;4981630;28;20044;-26
2021/12/26 00:50:25;;;;;;;3.85;1.80;;;;;;;25.62;34.00;95514.91;4981544;28;20034;-27
2021/12/26 00:52:50;;;;;;;3.90;1.90;;;;;;;25.63;34.11;95510.53;4969924;28;20035;-26
2021/12/26 00:55:16;;;;;;;4.65;2.08;;;;;;;25.62;34.15;95508.84;4982994;28;20069;-27
2021/12/26 00:57:41;;;;;;;4.53;2.03;;;;;;;25.62;34.13;95511.47;4983112;28;20038;-29
2021/12/26 01:00:10;;;;;;;3.30;1.80;;;;;;;25.61;34.06;95508.00;4981242;28;20060;-27
2021/12/26 01:02:35;;;;;;;4.47;1.70;;;;;;;25.61;34.06;95504.53;4976940;28;20022;-27
2021/12/26 01:05:01;;;;;;;3.05;1.50;;;;;;;25.61;33.97;95512.41;4981135;28;20997;-26
2021/12/26 01:09:53;;;;;;;5.15;1.73;;;;;;;25.62;34.12;95508.84;4982133;28;20030;-29
2021/12/26 01:12:19;;;;;;;3.80;1.90;;;;;;;25.61;34.02;95509.78;4974531;28;20034;-27
2021/12/26 01:14:50;;;;;;;5.10;1.92;;;;;;;25.61;34.01;95517.66;4978274;28;20243;-25
2021/12/26 01:17:19;;;;;;;5.35;1.88;;;;;;;25.60;34.00;95513.34;4978252;28;20029;-30
2021/12/26 01:19:48;;;;;;;3.45;1.73;;;;;;;25.60;34.12;95523.84;4974995;28;20116;-32
2021/12/26 01:22:15;;;;;;;2.88;1.80;;;;;;;25.60;34.11;95521.22;4975606;28;20500;-24
2021/12/26 01:24:41;;;;;;;3.45;1.40;;;;;;;25.61;34.06;95512.41;4976237;28;20041;-26
2021/12/26 01:27:07;;;;;;;3.22;1.55;;;;;;;25.60;33.93;95518.59;4980185;28;20264;-28
2021/12/26 01:29:34;;;;;;;3.35;1.40;;;;;;;25.60;33.97;95521.22;4971935;28;21688;-31
2021/12/26 01:31:59;;;;;;;2.95;1.40;;;;;;;25.59;34.01;95524.81;4956921;28;20049;-26
2021/12/26 01:34:25;;;;;;;4.10;1.88;;;;;;;25.59;34.11;95527.44;4978508;28;20128;-28
2021/12/26 01:36:50;;;;;;;3.58;1.45;;;;;;;25.59;33.97;95522.19;4958224;28;20091;-29
2021/12/26 01:39:15;;;;;;;2.83;1.80;;;;;;;25.60;33.89;95523.84;4975903;28;20064;-29
2021/12/26 01:41:43;;;;;;;2.72;1.70;;;;;;;25.59;33.99;95519.56;4975021;28;20040;-26
2021/12/26 01:44:11;;;;;;;3.63;1.50;;;;;;;25.57;34.02;95517.88;4975236;28;20097;-28
2021/12/26 01:46:36;;;;;;;3.10;1.38;;;;;;;25.59;33.86;95519.56;4976155;28;20038;-24
2021/12/26 01:49:12;;;;;;;3.60;1.52;;;;;;;25.59;33.97;95519.56;4955510;28;20033;-28
2021/12/26 01:51:38;;;;;;;2.72;1.65;;;;;;;25.59;33.89;95528.25;4975711;28;20069;-27
2021/12/26 01:54:08;;;;;;;1.63;1.27;;;;;;;25.59;33.85;95522.19;4957709;28;20104;-27
2021/12/26 01:56:33;;;;;;;1.88;1.20;;;;;;;25.58;33.79;95523.97;4956676;28;20041;-29
2021/12/26 01:59:00;;;;;;;4.15;1.33;;;;;;;25.58;33.89;95526.56;4976002;28;20141;-31
2021/12/26 02:01:25;;;;;;;2.55;1.50;;;;;;;25.58;33.95;95529.19;4957371;28;20573;-25
2021/12/26 02:03:50;;;;;;;2.10;1.50;;;;;;;25.57;33.85;95528.38;4956775;28;20500;-28
2021/12/26 02:06:16;;;;;;;2.72;1.50;;;;;;;25.57;34.02;95528.38;4945463;28;20034;-28
2021/12/26 02:08:41;;;;;;;2.55;1.40;;;;;;;25.57;33.89;95528.38;4984369;28;20122;-28
2021/12/26 02:11:07;;;;;;;3.17;1.60;;;;;;;25.58;33.78;95531.81;4985898;28;20030;-28
2021/12/26 02:13:38;;;;;;;3.22;1.30;;;;;;;25.56;33.82;95520.63;4966398;28;20073;-28
2021/12/26 02:16:05;;;;;;;3.75;1.60;;;;;;;25.55;33.83;95524.97;4981992;28;20065;-29
2021/12/26 02:18:31;;;;;;;2.45;1.20;;;;;;;25.55;33.99;95524.97;4966759;28;20043;-27
2021/12/26 02:23:35;;;;;;;2.78;1.25;;;;;;;25.56;33.93;95520.63;4982944;28;20027;-28
2021/12/26 02:28:41;;;;;;;2.05;1.10;;;;;;;25.54;33.83;95518.06;4986212;28;20041;-27
2021/12/26 02:31:07;;;;;;;2.83;1.73;;;;;;;25.54;33.89;95528.56;4987228;28;20032;-27
2021/12/26 02:33:32;;;;;;;1.92;1.17;;;;;;;25.54;33.88;95525.94;4989062;28;20018;-27
2021/12/26 02:35:58;;;;;;;2.30;1.40;;;;;;;25.55;34.02;95524.16;4988278;28;20038;-29
2021/12/26 02:38:23;;;;;;;2.85;1.52;;;;;;;25.54;33.77;95520.69;4986472;28;20029;-35
2021/12/26 02:40:50;;;;;;;2.30;1.27;;;;;;;25.54;33.91;95525.94;4990508;28;20037;-27
2021/12/26 02:43:17;;;;;;;2.20;1.05;;;;;;;25.53;33.85;95520.81;4989067;28;20041;-27
2021/12/26 02:45:42;;;;;;;2.20;1.27;;;;;;;25.53;33.94;95521.66;4954139;28;20081;-30
2021/12/26 02:48:08;;;;;;;3.72;1.30;;;;;;;25.54;33.81;95528.56;4987956;28;20030;-33
2021/12/26 02:50:33;;;;;;;1.98;1.25;;;;;;;25.54;33.71;95522.47;4986775;28;20116;-30
2021/12/26 02:53:01;;;;;;;1.70;1.38;;;;;;;25.54;33.77;95527.72;4987261;28;20036;-27
2021/12/26 02:55:27;;;;;;;1.90;1.00;;;;;;;25.54;33.73;95532.97;4968428;28;20038;-27
2021/12/26 02:57:54;;;;;;;2.22;1.33;;;;;;;25.53;33.70;95532.13;4986529;28;20741;-30
2021/12/26 03:00:24;;;;;;;2.10;1.00;;;;;;;25.53;33.71;95528.66;4987151;28;20026;-27
2021/12/26 03:02:52;;;;;;;1.75;0.90;;;;;;;25.52;33.67;95524.38;4972133;28;20644;-29
2021/12/26 03:05:18;;;;;;;3.40;1.13;;;;;;;25.53;33.75;95531.28;4983182;28;20108;-31
2021/12/26 03:07:43;;;;;;;1.70;1.10;;;;;;;25.51;33.72;95531.41;4982976;28;20092;-26
2021/12/26 03:10:11;;;;;;;1.42;0.95;;;;;;;25.52;33.70;95524.38;4954232;28;20092;-27
2021/12/26 03:12:40;;;;;;;1.50;0.90;;;;;;;25.51;33.66;95526.16;4978212;28;20058;-28
2021/12/26 03:15:06;;;;;;;1.65;1.00;;;;;;;25.46;33.93;95517.78;4990908;28;20064;-28
2021/12/26 03:17:31;;;;;;;1.05;0.80;;;;;;;25.51;33.79;95522.72;4991283;28;20025;-26
2021/12/26 03:19:56;;;;;;;3.63;1.15;;;;;;;25.50;33.59;95527.09;4985954;28;20030;-29
2021/12/26 03:22:24;;;;;;;3.17;1.10;;;;;;;25.51;33.68;95527.97;4988698;28;20055;-26
2021/12/26 03:24:50;;;;;;;0.77;0.75;;;;;;;25.49;33.77;95529.84;4969471;28;20029;-28
2021/12/26 03:27:15;;;;;;;1.75;1.10;;;;;;;25.51;33.75;95533.19;4986319;28;20030;-27
2021/12/26 03:29:41;;;;;;;1.17;0.80;;;;;;;25.50;33.82;95534.97;4969932;28;20068;-25
2021/12/26 03:32:07;;;;;;;1.35;0.85;;;;;;;25.51;33.68;95533.19;4967576;28;20691;-28
2021/12/26 03:34:33;;;;;;;1.83;1.00;;;;;;;25.50;33.69;95532.34;4986697;28;20040;-28
2021/12/26 03:36:58;;;;;;;2.65;1.00;;;;;;;25.50;33.72;95536.75;4971842;28;20026;-26
2021/12/26 03:39:24;;;;;;;1.55;0.90;;;;;;;25.49;33.82;95535.94;4984170;28;20048;-29
2021/12/26 03:41:50;;;;;;;1.40;0.90;;;;;;;25.49;33.71;95530.69;4968712;28;20077;-29
2021/12/26 03:44:15;;;;;;;1.20;0.90;;;;;;;25.49;33.77;95530.69;4986332;28;20030;-27
2021/12/26 03:46:41;;;;;;;1.67;0.90;;;;;;;25.48;33.67;95526.41;4986379;28;20582;-29
2021/12/26 03:49:06;;;;;;;1.70;1.13;;;;;;;25.48;33.64;95529.03;4984231;28;20036;-29
2021/12/26 03:51:33;;;;;;;2.25;0.90;;;;;;;25.48;33.52;95523.78;4986792;28;20026;-28
2021/12/26 03:53:59;;;;;;;1.02;0.80;;;;;;;25.49;33.58;95525.44;4986007;28;20034;-28
2021/12/26 03:56:24;;;;;;;1.42;0.90;;;;;;;25.48;33.51;95523.78;4985029;28;20049;-28
2021/12/26 03:58:50;;;;;;;0.82;0.75;;;;;;;25.48;33.62;95522.94;4967000;28;20040;-27
2021/12/26 04:01:15;;;;;;;0.73;0.70;;;;;;;25.48;33.73;95523.78;4983751;28;20038;-28
2021/12/26 04:03:41;;;;;;;1.85;0.95;;;;;;;25.47;33.74;95527.31;4987704;28;20809;-27
2021/12/26 04:06:06;;;;;;;1.02;0.90;;;;;;;25.48;33.74;95517.69;4968939;28;20030;-26
2021/12/26 04:08:31;;;;;;;1.35;0.90;;;;;;;25.48;33.65;95526.41;4951097;28;20941;-28
2021/12/26 04:10:57;;;;;;;1.55;0.93;;;;;;;25.48;33.64;95534.25;4983855;28;20034;-28
2021/12/26 04:13:22;;;;;;;3.42;0.85;;;;;;;25.46;33.60;95530.91;4981086;28;20590;-28
2021/12/26 04:15:48;;;;;;;3.45;1.15;;;;;;;25.48;33.58;95538.66;4985657;28;20538;-28
2021/12/26 04:18:13;;;;;;;2.15;1.20;;;;;;;25.48;33.59;95536.03;4985598;28;20045;-31
2021/12/26 04:20:39;;;;;;;1.00;0.80;;;;;;;25.49;33.65;95535.09;4990780;28;20026;-30
2021/12/26 04:23:04;;;;;;;2.15;0.80;;;;;;;25.48;33.59;95539.50;4988084;28;20447;-31
2021/12/26 04:25:29;;;;;;;1.00;0.75;;;;;;;25.47;33.53;95532.56;4984070;28;20034;-28
2021/12/26 04:27:55;;;;;;;1.70;0.73;;;;;;;25.47;33.66;95537.81;4979148;28;20033;-29
2021/12/26 04:30:21;;;;;;;0.90;0.77;;;;;;;25.47;33.57;95532.56;4975494;28;20038;-25
2021/12/26 04:32:46;;;;;;;1.10;0.65;;;;;;;25.47;33.53;95532.56;4978505;28;20030;-28
2021/12/26 04:35:12;;;;;;;0.90;0.75;;;;;;;25.45;33.55;95524.81;4962363;28;20109;-29
2021/12/26 04:37:37;;;;;;;2.83;0.80;;;;;;;25.47;33.59;95526.50;4977916;28;20030;-27
2021/12/26 04:40:04;;;;;;;1.27;0.77;;;;;;;25.45;33.52;95518.75;4947582;28;20061;-30
2021/12/26 04:42:30;;;;;;;1.67;0.70;;;;;;;25.45;33.58;95530.03;4975129;28;20594;-27
2021/12/26 04:44:55;;;;;;;1.13;0.75;;;;;;;25.44;33.80;95525.75;4976191;28;20045;-29
2021/12/26 04:47:21;;;;;;;2.03;0.80;;;;;;;25.45;33.64;95524.81;4980520;28;20030;-29
2021/12/26 04:49:46;;;;;;;1.27;0.70;;;;;;;25.46;33.52;95528.28;4963780;28;20128;-30
2021/12/26 04:52:12;;;;;;;0.93;0.75;;;;;;;25.45;33.64;95526.59;4976161;28;20037;-27
2021/12/26 04:54:37;;;;;;;2.15;0.98;;;;;;;25.45;33.61;95530.03;4976361;28;20045;-26
2021/12/26 04:57:02;;;;;;;2.08;0.80;;;;;;;25.45;33.49;95534.47;4974662;28;20030;-31
2021/12/26 04:59:28;;;;;;;1.08;0.93;;;;;;;25.41;33.53;95525.16;4973238;28;20796;-29
2021/12/26 05:01:54;;;;;;;0.98;0.70;;;;;;;25.44;33.46;95544.13;4976092;28;20037;-28
2021/12/26 05:04:20;;;;;;;0.80;0.60;;;;;;;25.44;33.58;95538.88;4976916;28;20705;-26
2021/12/26 05:06:46;;;;;;;3.45;0.98;;;;;;;25.44;33.54;95540.69;4962608;28;20041;-29
2021/12/26 05:09:13;;;;;;;1.95;1.00;;;;;;;25.43;33.56;95531.97;4983997;28;20034;-27
2021/12/26 05:11:39;;;;;;;0.88;0.70;;;;;;;25.44;33.57;95538.06;4943703;28;20029;-27
2021/12/26 05:14:04;;;;;;;1.27;0.82;;;;;;;25.39;33.51;95537.50;4974854;28;20048;-27
2021/12/26 05:16:30;;;;;;;1.60;0.77;;;;;;;25.43;33.61;95541.59;4945770;28;20400;-24
2021/12/26 05:18:55;;;;;;;1.08;0.60;;;;;;;25.43;33.55;95546.84;4978412;28;20073;-27
2021/12/26 05:21:20;;;;;;;1.25;0.57;;;;;;;25.42;33.51;95530.28;4976330;28;20506;-29
2021/12/26 05:23:46;;;;;;;0.70;0.60;;;;;;;25.43;33.49;95531.09;4979951;28;20042;-26
2021/12/26 05:26:11;;;;;;;1.83;0.80;;;;;;;25.43;33.49;95533.72;4982021;28;20033;-29
2021/12/26 05:28:37;;;;;;;0.60;0.50;;;;;;;25.42;33.49;95532.91;4974481;28;20037;-28
2021/12/26 05:31:02;;;;;;;0.65;0.65;;;;;;;25.42;33.59;95527.66;4961553;28;20059;-25
2021/12/26 05:33:28;;;;;;;4.72;1.00;;;;;;;25.42;33.40;95532.06;4976386;28;20165;-28
2021/12/26 05:35:53;;;;;;;5.75;2.13;;;;;;;25.41;33.29;95523.38;4980365;28;20021;-28
2021/12/26 05:38:18;;;;;;;3.78;1.40;;;;;;;25.40;33.19;95528.72;4972260;28;20955;-30
2021/12/26 05:40:44;;;;;;;2.25;1.08;;;;;;;25.40;33.40;95526.09;4975876;28;20034;-27
2021/12/26 05:43:09;;;;;;;3.08;1.10;;;;;;;25.38;33.53;95522.75;4977121;28;20033;-30
2021/12/26 05:45:35;;;;;;;5.63;1.35;;;;;;;25.38;33.45;95523.59;4976264;28;20025;-26
2021/12/26 05:48:00;;;;;;;1.73;0.90;;;;;;;25.39;33.53;95524.41;4976057;28;20061;-28
2021/12/26 05:50:26;;;;;;;1.30;0.75;;;;;;;25.38;33.42;95527.97;4976092;28;20117;-28
2021/12/26 05:52:51;;;;;;;1.33;0.80;;;;;;;25.37;33.60;95521.91;4976777;28;20475;-26
2021/12/26 05:55:17;;;;;;;1.20;0.60;;;;;;;25.36;33.42;95524.66;4975972;28;20061;-25
2021/12/26 05:57:42;;;;;;;1.15;0.70;;;;;;;25.36;33.59;95525.47;4975378;28;20118;-27
2021/12/26 06:00:10;;;;;;;1.75;0.60;;;;;;;25.36;33.36;95524.66;4975711;28;20107;-25
2021/12/26 06:02:36;;;;;;;0.70;0.65;;;;;;;25.37;33.48;95523.69;4958775;28;20592;-27
2021/12/26 06:05:01;;;;;;;4.53;0.70;;;;;;;25.37;33.51;95532.41;4975092;28;20030;-27
2021/12/26 06:07:27;;;;;;;1.27;0.65;;;;;;;25.36;33.69;95528.09;4974553;28;20037;-27
2021/12/26 06:09:52;;;;;;;1.35;0.70;;;;;;;25.36;33.72;95520.22;4973678;28;20029;-28
2021/12/26 06:12:18;;;;;;;0.52;0.50;;;;;;;25.37;33.49;95521.06;4959411;28;20026;-24
2021/12/26 06:14:43;;;;;;;1.05;0.68;;;;;;;25.37;33.39;95526.31;4974302;28;20700;-25
2021/12/26 06:17:09;;;;;;;7.45;1.95;;;;;;;25.36;33.40;95519.41;4974281;28;20033;-29
2021/12/26 06:19:34;;;;;;;3.88;0.93;;;;;;;25.35;33.37;95517.72;4972836;28;20036;-28
2021/12/26 06:22:00;;;;;;;1.50;1.00;;;;;;;25.35;33.50;95528.22;4974125;28;20048;-26
2021/12/26 06:24:26;;;;;;;2.03;0.90;;;;;;;25.34;33.47;95522.13;4976623;28;20037;-27
2021/12/26 06:26:54;;;;;;;4.00;0.95;;;;;;;25.34;33.48;95526.53;4982653;28;20100;-29
2021/12/26 06:29:19;;;;;;;2.70;0.85;;;;;;;25.35;33.41;95528.22;4974733;28;20066;-28
2021/12/26 06:31:45;;;;;;;1.30;0.80;;;;;;;25.34;33.48;95532.63;4957995;28;20022;-28
2021/12/26 06:34:10;;;;;;;2.10;0.98;;;;;;;25.35;33.36;95538.72;4973147;28;20036;-29
2021/12/26 06:36:35;;;;;;;1.42;1.00;;;;;;;25.35;33.50;95534.28;4974305;28;20034;-28
2021/12/26 06:39:01;;;;;;;2.20;1.00;;;;;;;25.33;33.61;95533.56;4972479;28;20044;-28
2021/12/26 06:41:26;;;;;;;1.05;0.65;;;;;;;25.34;33.60;95529.16;4977229;28;21592;-31
2021/12/26 06:43:52;;;;;;;2.22;0.93;;;;;;;25.34;33.49;95537.00;4985451;28;20531;-30
2021/12/26 06:46:18;;;;;;;1.20;0.82;;;;;;;25.34;33.51;95543.09;4979741;28;20642;-27
2021/12/26 06:48:43;;;;;;;2.53;0.90;;;;;;;25.33;33.50;95538.81;4972483;28;20026;-30
2021/12/26 06:51:09;;;;;;;1.02;0.55;;;;;;;25.34;33.38;95537.00;4961405;28;21932;-28
2021/12/26 06:53:34;;;;;;;0.68;0.60;;;;;;;25.33;33.41;95536.19;4956822;28;20151;-26
2021/12/26 06:56:00;;;;;;;1.10;0.77;;;;;;;25.34;33.30;95542.25;4974413;28;20036;-28
2021/12/26 06:58:25;;;;;;;1.73;1.10;;;;;;;25.33;33.44;95535.34;4974050;28;20104;-27
2021/12/26 07:00:51;;;;;;;0.82;0.60;;;;;;;25.31;33.53;95538.91;4956857;28;20412;-27
2021/12/26 07:03:16;;;;;;;1.05;0.70;;;;;;;25.34;33.39;95544.88;4974665;28;20184;-28
2021/12/26 07:05:42;;;;;;;0.75;0.70;;;;;;;25.33;33.50;95545.84;4973833;28;20205;-25
2021/12/26 07:08:07;;;;;;;0.88;0.70;;;;;;;25.34;33.36;95544.88;4957935;28;20025;-26
2021/12/26 07:10:33;;;;;;;2.78;0.98;;;;;;;25.31;33.35;95549.41;4976663;28;20029;-25
2021/12/26 07:12:58;;;;;;;1.75;0.80;;;;;;;25.33;33.33;95545.84;4961217;28;20069;-27
2021/12/26 07:15:23;;;;;;;2.88;0.70;;;;;;;25.31;33.42;95544.16;4977426;28;20053;-24
2021/12/26 07:17:49;;;;;;;1.15;0.80;;;;;;;25.31;33.37;95544.16;4980333;28;20036;-28
2021/12/26 07:20:14;;;;;;;1.13;0.98;;;;;;;25.29;33.49;95540.78;4975842;28;20034;-25
2021/12/26 07:22:40;;;;;;;1.67;0.80;;;;;;;25.31;33.31;95552.03;4960594;28;20026;-26
2021/12/26 07:25:06;;;;;;;1.00;0.73;;;;;;;25.31;33.49;95552.03;4977129;28;20041;-24
2021/12/26 07:27:31;;;;;;;1.40;1.00;;;;;;;25.31;33.47;95559.91;4974293;28;20061;-28
2021/12/26 07:29:58;;;;;;;2.80;0.73;;;;;;;25.30;33.34;95558.22;4978171;28;20089;-27
2021/12/26 07:32:24;;;;;;;1.38;0.80;;;;;;;25.30;33.49;95554.75;4977757;28;20033;-29
2021/12/26 07:34:49;;;;;;;1.95;1.10;;;;;;;25.31;33.52;95565.16;4974766;28;20518;-27
2021/12/26 07:37:15;;;;;;;4.47;1.13;;;;;;;25.30;33.39;95563.47;4977239;28;20044;-26
2021/12/26 07:39:40;;;;;;;6.63;1.33;;;;;;;25.30;33.48;95563.47;4950806;28;20049;-27
2021/12/26 07:42:06;;;;;;;6.15;1.35;;;;;;;25.31;33.33;95564.28;4962067;28;20104;-28
2021/12/26 07:44:31;;;;;;;4.53;1.90;;;;;;;25.30;33.33;95568.72;4976184;28;20259;-27
2021/12/26 07:46:57;;;;;;;7.47;1.80;;;;;;;25.30;33.20;95571.34;4980321;28;20027;-27
2021/12/26 07:49:22;;;;;;;6.07;2.40;;;;;;;25.28;33.30;95570.59;4979988;28;20658;-23
2021/12/26 07:51:49;;;;;;;10.80;2.70;;;;;;;25.28;33.32;95562.72;4979478;28;20057;-25
2021/12/26 07:54:16;;;;;;;5.80;2.70;;;;;;;25.28;33.40;95573.22;4981456;28;20030;-27
2021/12/26 07:56:41;;;;;;;7.25;2.95;;;;;;;25.27;33.32;95574.16;4977839;28;20076;-24
2021/12/26 07:59:07;;;;;;;6.80;3.22;;;;;;;25.27;33.16;95574.16;4980025;28;20034;-38
2021/12/26 08:01:32;;;;;;;10.40;2.63;;;;;;;25.27;33.07;95576.78;4964581;28;20613;-28
2021/12/26 08:04:01;;;;;;;6.72;2.90;;;;;;;25.28;32.98;95572.41;4979798;28;20092;-29
2021/12/26 08:06:27;;;;;;;5.82;2.85;;;;;;;25.27;32.99;95574.16;4953840;28;20168;-28
2021/12/26 08:08:52;;;;;;;6.10;2.42;;;;;;;25.28;33.01;95577.66;4976828;28;20033;-27
2021/12/26 08:11:18;;;;;;;7.15;2.80;;;;;;;25.28;32.87;95567.16;4964650;28;20034;-29
2021/12/26 08:13:43;;;;;;;4.85;2.70;;;;;;;25.28;32.84;95572.41;4985116;28;20152;-28
2021/12/26 08:16:09;;;;;;;4.03;2.67;;;;;;;25.27;32.70;95568.94;4973628;28;20099;-26
2021/12/26 08:18:34;;;;;;;5.68;2.20;;;;;;;25.28;32.90;95573.22;4970358;28;20060;-30
2021/12/26 08:20:59;;;;;;;5.60;2.53;;;;;;;25.28;32.75;95572.41;4981989;28;20045;-29
2021/12/26 08:23:25;;;;;;;6.53;2.88;;;;;;;25.26;32.82;95572.50;4964485;28;20092;-28
2021/12/26 08:25:50;;;;;;;6.38;2.72;;;;;;;25.28;32.84;95569.78;4986379;28;20034;-28
2021/12/26 08:28:16;;;;;;;5.20;2.92;;;;;;;25.28;32.84;95572.41;4970672;28;20029;-29
2021/12/26 08:30:42;;;;;;;8.43;2.75;;;;;;;25.28;32.70;95575.84;4965409;28;20662;-26
2021/12/26 08:33:08;;;;;;;6.80;2.88;;;;;;;25.27;32.71;95574.16;4977316;28;20166;-27
2021/12/26 08:35:34;;;;;;;6.18;2.88;;;;;;;25.28;32.58;95575.84;4981150;28;20026;-31
2021/12/26 08:37:59;;;;;;;5.95;2.95;;;;;;;25.27;32.56;95574.16;4961762;28;20064;-30
2021/12/26 08:40:25;;;;;;;6.15;3.00;;;;;;;25.29;32.74;95581.94;4967147;28;20150;-26
2021/12/26 08:42:50;;;;;;;5.38;3.22;;;;;;;25.29;32.36;95574.06;4981355;28;20034;-28
2021/12/26 08:45:16;;;;;;;6.55;3.60;;;;;;;25.27;32.10;95568.94;4989597;28;20519;-28
2021/12/26 08:47:41;;;;;;;7.32;3.50;;;;;;;25.27;32.12;95574.16;4958499;28;20515;-24
2021/12/26 08:50:08;;;;;;;6.28;3.30;;;;;;;25.27;31.96;95584.66;4975770;28;20654;-26
2021/12/26 08:52:33;;;;;;;4.70;2.78;;;;;;;25.26;32.20;95579.53;4972948;28;20256;-30
2021/12/26 08:54:58;;;;;;;7.47;3.40;;;;;;;25.25;32.22;95586.53;4974678;28;20613;-28
2021/12/26 08:57:24;;;;;;;6.43;2.72;;;;;;;25.25;32.37;95586.53;4973106;28;20033;-28
2021/12/26 08:59:49;;;;;;;4.50;2.70;;;;;;;25.25;32.32;95586.53;4977351;28;20029;-27
2021/12/26 09:02:15;;;;;;;4.13;2.45;;;;;;;25.24;32.46;95584.88;4957637;28;20515;-26
2021/12/26 09:04:40;;;;;;;4.78;2.70;;;;;;;25.25;32.45;95589.16;4979975;28;20035;-28
2021/12/26 09:07:06;;;;;;;5.43;2.45;;;;;;;25.27;32.48;95589.06;4979421;28;20045;-30
2021/12/26 09:09:31;;;;;;;5.43;2.50;;;;;;;25.27;32.74;95589.06;4985039;28;20030;-34
2021/12/26 09:11:57;;;;;;;5.03;2.20;;;;;;;25.27;32.61;95595.16;4975937;28;20033;-31
2021/12/26 09:14:23;;;;;;;5.15;2.50;;;;;;;25.27;32.67;95600.38;4982866;28;20060;-31
2021/12/26 09:16:48;;;;;;;5.15;2.30;;;;;;;25.27;32.85;95600.38;4985928;28;20034;-30
2021/12/26 09:19:14;;;;;;;4.38;2.05;;;;;;;25.27;32.85;95600.38;4967612;28;20034;-28
2021/12/26 09:21:39;;;;;;;3.78;2.15;;;;;;;25.28;32.90;95601.25;4986018;28;20056;-30
2021/12/26 09:24:05;;;;;;;6.03;2.35;;;;;;;25.28;32.94;95601.25;4980858;28;20048;-30
2021/12/26 09:26:30;;;;;;;5.25;2.10;;;;;;;25.28;33.00;95599.44;4980560;28;20026;-30
2021/12/26 09:28:57;;;;;;;5.57;2.17;;;;;;;25.28;32.79;95609.94;4968450;28;20030;-28
2021/12/26 09:31:22;;;;;;;3.70;1.80;;;;;;;25.29;32.91;95608.97;4965489;28;20528;-26
2021/12/26 09:33:48;;;;;;;5.32;1.95;;;;;;;25.29;33.01;95605.53;4983921;28;20034;-26
2021/12/26 09:36:13;;;;;;;5.53;1.95;;;;;;;25.30;33.09;95610.69;4987680;28;20030;-28
2021/12/26 09:38:38;;;;;;;5.90;5.13;;;;;;;25.27;30.94;95605.63;4975566;28;20046;-26
2021/12/26 09:41:04;;;;;;;14.90;5.90;;;;;;;25.17;28.49;95610.66;4978344;28;20088;-28
2021/12/26 09:43:29;;;;;;;6.45;5.47;;;;;;;24.97;27.30;95609.44;4963638;28;20034;-28
2021/12/26 09:45:55;;;;;;;9.02;4.32;;;;;;;24.79;28.04;95612.31;4977266;28;20308;-28
2021/12/26 09:48:20;;;;;;;10.90;4.07;;;;;;;24.67;28.70;95610.53;4965307;28;20026;-25
2021/12/26 09:50:46;;;;;;;10.23;3.40;;;;;;;24.58;29.54;95611.16;4957379;28;20479;-28
2021/12/26 09:53:12;;;;;;;4.65;2.95;;;;;;;24.53;30.05;95604.44;4983696;28;20034;-28
2021/12/26 09:55:37;;;;;;;6.35;2.90;;;;;;;24.52;30.49;95599.31;4983163;28;20037;-26
2021/12/26 09:58:03;;;;;;;4.22;2.63;;;;;;;24.53;31.00;95603.63;4984975;28;20107;-26
2021/12/26 10:00:33;;;;;;;4.43;2.60;;;;;;;24.53;31.20;95599.19;4983779;28;20145;-27
2021/12/26 10:03:30;;;;;;;3.70;2.67;;;;;;;24.56;31.38;95600.78;4969857;28;20052;-29
2021/12/26 10:06:02;;;;;;;6.95;2.30;;;;;;;24.59;31.58;95595.34;4986081;28;20439;-26
2021/12/26 10:08:29;;;;;;;5.25;2.42;;;;;;;24.63;31.71;95588.09;4981851;28;20037;-28
2021/12/26 10:11:10;;;;;;;6.35;2.30;;;;;;;24.66;31.76;95590.53;4981374;28;20034;-29
2021/12/26 10:14:08;;;;;;;7.07;2.30;;;;;;;24.68;31.78;95586.03;4986573;28;20037;-28
2021/12/26 10:16:42;;;;;;;7.35;2.40;;;;;;;24.71;31.79;95577.94;4983694;28;20046;-27
2021/12/26 10:19:08;;;;;;;7.13;2.58;;;;;;;24.72;31.85;95574.41;4966854;28;20025;-28
2021/12/26 10:21:41;;;;;;;14.05;3.50;;;;;;;24.77;31.94;95574.06;4950260;28;20068;-29
2021/12/26 10:24:31;;;;;;;12.18;2.78;;;;;;;24.80;31.91;95571.25;4981662;28;20027;-27
2021/12/26 10:26:58;;;;;;;15.52;3.40;;;;;;;24.81;32.16;95570.31;4959974;28;20381;-26
2021/12/26 10:29:25;;;;;;;12.25;3.00;;;;;;;24.86;31.91;95575.28;4986057;28;20038;-26
2021/12/26 10:31:59;;;;;;;9.90;2.58;;;;;;;24.88;32.11;95568.97;4986057;28;20077;-25
2021/12/26 10:34:39;;;;;;;7.38;2.60;;;;;;;24.90;32.14;95566.25;4986634;28;20042;-27
2021/12/26 10:37:07;;;;;;;12.23;2.58;;;;;;;24.92;32.17;95564.34;4986628;28;20062;-29
2021/12/26 10:40:01;;;;;;;9.60;2.55;;;;;;;24.96;32.24;95564.97;4989998;28;20085;-30
2021/12/26 10:42:32;;;;;;;7.78;2.83;;;;;;;24.98;32.20;95563.09;4982462;28;20129;-30
2021/12/26 10:45:05;;;;;;;8.90;2.70;;;;;;;25.00;32.10;95559.44;4987324;28;20030;-27
2021/12/26 10:47:32;;;;;;;7.18;2.25;;;;;;;25.01;32.33;95563.72;4992971;28;20446;-28
2021/12/26 10:50:08;;;;;;;5.90;2.60;;;;;;;25.04;32.25;95560.88;4970257;28;20564;-26
2021/12/26 10:52:35;;;;;;;7.50;2.38;;;;;;;25.05;32.14;95552.06;4991430;28;20972;-26
2021/12/26 10:55:01;;;;;;;7.40;3.08;;;;;;;25.08;32.36;95552.78;4991447;28;20120;-28
2021/12/26 10:57:37;;;;;;;9.32;2.30;;;;;;;25.10;32.20;95553.53;4971556;28;20261;-27
2021/12/26 11:00:10;;;;;;;8.77;2.33;;;;;;;25.11;32.16;95552.59;4989518;28;20568;-28
2021/12/26 11:02:36;;;;;;;5.72;2.50;;;;;;;25.12;32.22;95554.25;4972996;28;20563;-28
2021/12/26 11:05:05;;;;;;;5.70;2.20;;;;;;;25.14;32.31;95547.97;4989514;28;20029;-29
2021/12/26 11:07:42;;;;;;;5.57;1.92;;;;;;;25.17;32.49;95546.94;4980311;28;20576;-29
2021/12/26 11:10:16;;;;;;;4.95;2.10;;;;;;;25.18;32.46;95543.34;4973932;28;20045;-28
2021/12/26 11:12:47;;;;;;;10.75;2.22;;;;;;;25.19;32.43;95534.53;4971899;28;20041;-26
2021/12/26 11:15:13;;;;;;;4.28;2.08;;;;;;;25.20;32.38;95538.81;4969913;28;20171;-30
2021/12/26 11:17:43;;;;;;;10.50;2.40;;;;;;;25.23;32.40;95536.00;4991859;28;20201;-28
2021/12/26 11:20:09;;;;;;;5.57;2.17;;;;;;;25.24;32.43;95531.59;4991656;28;20147;-28
2021/12/26 11:22:34;;;;;;;7.47;2.40;;;;;;;25.26;32.32;95529.69;4990135;28;20650;-27
2021/12/26 11:24:59;;;;;;;9.43;2.30;;;;;;;25.27;32.31;95528.75;4975037;28;20027;-28
2021/12/26 11:27:25;;;;;;;9.32;2.55;;;;;;;25.28;32.35;95528.63;4989054;28;20057;-29
2021/12/26 11:29:52;;;;;;;8.10;2.47;;;;;;;25.29;32.60;95529.50;4986683;28;20034;-29
2021/12/26 11:32:20;;;;;;;5.80;2.10;;;;;;;25.30;32.58;95526.75;4971783;28;20026;-27
2021/12/26 11:34:46;;;;;;;6.70;2.22;;;;;;;25.31;32.38;95528.44;4985419;28;20485;-28
2021/12/26 11:37:12;;;;;;;7.95;2.35;;;;;;;25.31;32.61;95520.56;4989742;28;20049;-28
2021/12/26 11:39:38;;;;;;;4.30;1.92;;;;;;;25.34;32.46;95521.28;4988933;28;20022;-29